createdAt,value
2019-01-19T00:00:46.398Z,99.10
2019-01-19T00:03:36.070Z,99.10
2019-01-19T00:06:40.091Z,99.20
2019-01-19T00:12:18.428Z,98.80
2019-01-19T00:15:01.377Z,99.00
2019-01-19T00:18:11.539Z,98.70
2019-01-19T00:21:02.368Z,98.90
2019-01-19T00:24:28.756Z,98.90
2019-01-19T00:27:27.252Z,99.10
2019-01-19T00:30:35.844Z,98.70
2019-01-19T00:33:32.301Z,98.90
2019-01-19T00:36:11.035Z,98.90
2019-01-19T00:39:45.169Z,98.90
2019-01-19T00:42:52.451Z,98.90
2019-01-19T00:45:50.190Z,98.90
2019-01-19T00:48:36.775Z,98.90
2019-01-19T00:51:36.011Z,98.80
2019-01-19T00:54:14.896Z,99.00
2019-01-19T00:57:12.755Z,99.10
2019-01-19T00:59:45.234Z,99.40
2019-01-19T01:02:25.991Z,99.40
2019-01-19T01:05:02.166Z,99.30
2019-01-19T01:11:13.245Z,99.10
2019-01-19T01:17:10.060Z,98.50
2019-01-19T01:20:38.267Z,98.30
2019-01-19T01:23:50.130Z,98.60
2019-01-19T01:30:13.962Z,98.40
2019-01-19T01:33:42.131Z,98.70
2019-01-19T01:36:39.780Z,98.60
2019-01-19T01:39:33.611Z,98.40
2019-01-19T01:42:45.108Z,98.40
2019-01-19T01:45:43.511Z,98.50
2019-01-19T01:49:08.650Z,98.50
2019-01-19T01:52:48.999Z,98.50
2019-01-19T01:55:34.055Z,98.50
2019-01-19T01:58:42.186Z,98.40
2019-01-19T02:01:32.131Z,98.50
2019-01-19T02:04:38.534Z,98.60
2019-01-19T02:07:23.213Z,98.50
2019-01-19T02:10:42.113Z,98.60
2019-01-19T02:16:41.833Z,98.50
2019-01-19T02:22:27.538Z,98.00
2019-01-19T02:25:33.104Z,98.60
2019-01-19T02:28:40.975Z,98.50
2019-01-19T02:31:56.760Z,98.40
2019-01-19T02:35:05.630Z,98.60
2019-01-19T02:40:50.671Z,98.60
2019-01-19T02:43:45.142Z,98.60
2019-01-19T02:49:27.614Z,98.40
2019-01-19T02:52:37.840Z,98.40
2019-01-19T02:55:57.448Z,98.40
2019-01-19T02:59:02.843Z,98.80
2019-01-19T03:01:56.851Z,98.30
2019-01-19T03:05:06.099Z,98.70
2019-01-19T03:07:56.353Z,98.40
2019-01-19T03:11:10.291Z,98.00
2019-01-19T03:19:34.832Z,98.10
2019-01-19T03:25:13.904Z,98.20
2019-01-19T03:28:20.581Z,97.70
2019-01-19T03:31:19.892Z,98.00
2019-01-19T03:34:32.081Z,97.90
2019-01-19T03:37:43.706Z,97.90
2019-01-19T03:40:58.994Z,97.90
2019-01-19T03:44:04.671Z,98.00
2019-01-19T03:46:54.350Z,98.30
2019-01-19T03:49:53.341Z,97.80
2019-01-19T03:52:48.475Z,97.90
2019-01-19T03:56:12.683Z,97.80
2019-01-19T03:59:08.592Z,98.00
2019-01-19T04:02:08.915Z,97.50
2019-01-19T04:05:08.931Z,97.90
2019-01-19T04:08:14.634Z,98.00
2019-01-19T04:14:24.427Z,97.90
2019-01-19T04:19:59.638Z,97.90
2019-01-19T04:25:41.358Z,98.00
2019-01-19T04:28:11.019Z,98.10
2019-01-19T04:30:39.733Z,98.00
2019-01-19T04:35:36.900Z,97.90
2019-01-19T04:38:05.590Z,97.80
2019-01-19T04:40:36.319Z,97.90
2019-01-19T04:43:04.934Z,97.90
2019-01-19T04:48:03.035Z,98.00
2019-01-19T04:50:31.589Z,98.00
2019-01-19T04:53:00.347Z,98.20
2019-01-19T04:55:29.166Z,98.10
2019-01-19T05:00:28.258Z,98.10
2019-01-19T05:02:56.856Z,98.00
2019-01-19T05:05:25.651Z,98.00
2019-01-19T05:07:57.351Z,98.20
2019-01-19T05:10:25.981Z,97.90
2019-01-19T05:12:54.467Z,97.80
2019-01-19T05:20:20.066Z,97.70
2019-01-19T05:22:48.658Z,97.80
2019-01-19T05:25:17.366Z,97.80
2019-01-19T05:27:46.021Z,97.90
2019-01-19T05:35:13.106Z,97.60
2019-01-19T05:37:41.593Z,97.90
2019-01-19T05:40:10.871Z,98.00
2019-01-19T05:45:10.830Z,97.90
2019-01-19T05:47:39.536Z,98.10
2019-01-19T05:52:38.676Z,98.00
2019-01-19T05:55:07.355Z,98.50
2019-01-19T05:57:36.058Z,98.30
2019-01-19T06:00:07.950Z,98.40
2019-01-19T06:02:36.412Z,98.40
2019-01-19T06:05:05.530Z,98.30
2019-01-19T06:07:33.954Z,98.20
2019-01-19T06:10:02.658Z,98.40
2019-01-19T06:12:31.184Z,98.50
2019-01-19T06:14:59.816Z,98.50
2019-01-19T06:17:28.570Z,98.60
2019-01-19T06:19:57.262Z,98.60
2019-01-19T06:22:26.112Z,98.60
2019-01-19T06:24:54.574Z,98.60
2019-01-19T06:29:51.393Z,98.50
2019-01-19T06:32:20.006Z,98.80
2019-01-19T06:34:48.512Z,98.40
2019-01-19T06:37:17.136Z,98.80
2019-01-19T06:39:45.686Z,98.70
2019-01-19T06:42:14.325Z,98.80
2019-01-19T06:44:44.170Z,98.80
2019-01-19T06:47:12.701Z,98.90
2019-01-19T06:49:41.198Z,98.90
2019-01-19T06:52:11.062Z,98.90
2019-01-19T07:02:04.911Z,98.80
2019-01-19T07:07:03.181Z,98.90
2019-01-19T07:09:31.943Z,98.80
2019-01-19T07:12:00.489Z,98.80
2019-01-19T07:14:29.023Z,98.80
2019-01-19T07:21:54.400Z,98.90
2019-01-19T07:26:51.624Z,99.00
2019-01-19T07:34:17.015Z,98.70
2019-01-19T07:36:45.694Z,98.50
2019-01-19T07:39:14.425Z,98.80
2019-01-19T07:41:43.226Z,98.90
2019-01-19T07:44:11.803Z,99.00
2019-01-19T07:46:41.347Z,98.90
2019-01-19T07:49:10.035Z,98.90
2019-01-19T07:56:37.431Z,98.80
2019-01-19T07:59:06.425Z,98.80
2019-01-19T08:09:00.636Z,98.80
2019-01-19T08:11:29.304Z,98.60
2019-01-19T08:13:57.915Z,98.50
2019-01-19T08:16:26.800Z,98.80
2019-01-19T08:18:55.401Z,98.70
2019-01-19T08:21:24.069Z,98.50
2019-01-19T08:26:21.123Z,98.60
2019-01-19T08:28:49.771Z,98.40
2019-01-19T08:31:18.587Z,98.50
2019-01-19T08:33:47.142Z,98.40
2019-01-19T08:36:16.008Z,98.50
2019-01-19T08:38:44.906Z,98.40
2019-01-19T08:44:02.808Z,98.50
2019-01-19T08:46:31.161Z,98.60
2019-01-19T08:48:59.790Z,98.40
2019-01-19T08:51:28.381Z,98.60
2019-01-19T08:53:57.177Z,98.50
2019-01-19T09:01:22.492Z,98.50
2019-01-19T09:03:50.924Z,98.60
2019-01-19T09:06:20.025Z,98.60
2019-01-19T09:08:48.811Z,98.60
2019-01-19T09:11:17.385Z,98.50
2019-01-19T09:13:46.048Z,98.50
2019-01-19T09:16:17.235Z,98.60
2019-01-19T09:18:46.035Z,98.30
2019-01-19T09:21:14.600Z,98.50
2019-01-19T09:26:31.461Z,98.20
2019-01-19T09:29:00.143Z,98.30
2019-01-19T09:31:28.780Z,98.10
2019-01-19T09:33:57.412Z,98.10
2019-01-19T09:36:26.273Z,97.30
2019-01-19T09:38:55.052Z,98.00
2019-01-19T09:43:52.226Z,98.00
2019-01-19T09:46:20.709Z,98.00
2019-01-19T09:48:49.470Z,98.10
2019-01-19T09:53:46.356Z,98.00
2019-01-19T09:56:14.997Z,97.80
2019-01-19T10:01:12.209Z,98.00
2019-01-19T10:03:40.710Z,97.70
2019-01-19T10:08:37.821Z,97.70
2019-01-19T10:11:07.224Z,98.10
2019-01-19T10:13:36.035Z,98.10
2019-01-19T10:16:04.670Z,97.80
2019-01-19T10:18:33.551Z,97.70
2019-01-19T10:21:02.625Z,97.50
2019-01-19T10:23:31.510Z,97.70
2019-01-19T10:26:00.229Z,97.60
2019-01-19T10:28:28.853Z,97.70
2019-01-19T10:30:57.606Z,97.70
2019-01-19T10:33:26.262Z,97.60
2019-01-19T10:35:57.159Z,97.40
2019-01-19T10:38:25.674Z,97.50
2019-01-19T10:40:54.347Z,97.30
2019-01-19T10:45:51.135Z,97.30
2019-01-19T10:48:19.931Z,97.20
2019-01-19T10:50:48.797Z,97.30
2019-01-19T10:53:17.297Z,97.30
2019-01-19T10:55:45.943Z,97.10
2019-01-19T10:58:14.381Z,97.20
2019-01-19T11:00:43.172Z,97.10
2019-01-19T11:03:11.950Z,97.30
2019-01-19T11:05:40.552Z,97.10
2019-01-19T11:08:11.327Z,96.90
2019-01-19T11:10:40.034Z,97.00
2019-01-19T11:13:08.808Z,96.80
2019-01-19T11:15:37.371Z,96.60
2019-01-19T11:18:07.145Z,96.70
2019-01-19T11:20:35.755Z,96.60
2019-01-19T11:23:04.567Z,96.90
2019-01-19T11:25:33.089Z,96.80
2019-01-19T11:28:01.767Z,96.60
2019-01-19T11:30:31.181Z,96.70
2019-01-19T11:32:59.956Z,96.80
2019-01-19T11:35:28.891Z,96.60
2019-01-19T11:37:57.495Z,96.70
2019-01-19T11:40:31.879Z,96.70
2019-01-19T11:43:00.467Z,96.60
2019-01-19T11:45:29.074Z,96.80
2019-01-19T11:47:57.667Z,96.60
2019-01-19T11:50:26.237Z,96.50
2019-01-19T11:52:54.879Z,96.30
2019-01-19T11:55:23.588Z,96.40
2019-01-19T11:57:57.821Z,96.40
2019-01-19T12:00:28.238Z,96.40
2019-01-19T12:02:56.770Z,96.40
2019-01-19T12:05:25.297Z,96.60
2019-01-19T12:07:53.760Z,96.30
2019-01-19T12:10:24.433Z,96.20
2019-01-19T12:12:53.112Z,96.40
2019-01-19T12:15:21.770Z,96.40
2019-01-19T12:17:50.500Z,96.20
2019-01-19T12:20:42.682Z,96.40
2019-01-19T12:23:12.476Z,96.20
2019-01-19T12:25:41.307Z,96.50
2019-01-19T12:28:10.019Z,96.20
2019-01-19T12:30:38.648Z,95.90
2019-01-19T12:33:07.371Z,96.40
2019-01-19T12:35:36.000Z,96.10
2019-01-19T12:40:34.679Z,96.30
2019-01-19T12:43:06.975Z,96.50
2019-01-19T12:45:41.198Z,96.50
2019-01-19T12:48:09.660Z,96.20
2019-01-19T12:50:38.496Z,96.40
2019-01-19T12:53:07.005Z,96.00
2019-01-19T12:55:35.709Z,96.10
2019-01-19T12:58:06.706Z,96.20
2019-01-19T13:00:35.582Z,96.40
2019-01-19T13:03:04.603Z,96.30
2019-01-19T13:06:20.850Z,96.30
2019-01-19T13:08:49.552Z,96.30
2019-01-19T13:12:22.526Z,96.60
2019-01-19T13:15:35.546Z,96.50
2019-01-19T13:18:47.301Z,96.30
2019-01-19T13:25:00.311Z,96.20
2019-01-19T13:27:47.371Z,96.30
2019-01-19T13:31:12.176Z,96.50
2019-01-19T13:34:18.771Z,96.20
2019-01-19T13:37:43.592Z,96.20
2019-01-19T13:40:51.350Z,96.20
2019-01-19T13:44:09.343Z,96.00
2019-01-19T13:47:19.880Z,96.00
2019-01-19T13:50:31.315Z,96.00
2019-01-19T13:53:37.406Z,95.90
2019-01-19T13:56:41.582Z,96.30
2019-01-19T13:59:34.747Z,96.20
2019-01-19T14:02:38.011Z,96.20
2019-01-19T14:05:31.656Z,96.30
2019-01-19T14:08:23.537Z,96.30
2019-01-19T14:11:10.710Z,96.40
2019-01-19T14:14:08.398Z,96.10
2019-01-19T14:17:16.957Z,96.20
2019-01-19T14:20:33.922Z,96.20
2019-01-19T14:23:25.739Z,96.10
2019-01-19T14:26:11.746Z,96.00
2019-01-19T14:29:37.397Z,96.30
2019-01-19T14:32:28.304Z,96.40
2019-01-19T14:35:16.961Z,96.40
2019-01-19T14:38:07.932Z,96.40
2019-01-19T14:40:55.164Z,96.30
2019-01-19T14:43:54.588Z,96.60
2019-01-19T14:49:50.208Z,96.50
2019-01-19T14:52:57.149Z,96.60
2019-01-19T14:56:08.749Z,96.70
2019-01-19T14:58:50.815Z,96.60
2019-01-19T15:02:01.206Z,96.70
2019-01-19T15:04:50.921Z,96.90
2019-01-19T15:07:53.047Z,96.70
2019-01-19T15:11:14.903Z,97.00
2019-01-19T15:14:22.568Z,97.20
2019-01-19T15:17:24.171Z,97.10
2019-01-19T15:20:31.401Z,97.00
2019-01-19T15:23:45.798Z,96.90
2019-01-19T15:27:06.792Z,97.00
2019-01-19T15:30:01.971Z,97.40
2019-01-19T15:33:02.931Z,97.50
2019-01-19T15:36:07.462Z,97.40
2019-01-19T15:38:49.034Z,97.80
2019-01-19T15:42:03.898Z,97.90
2019-01-19T15:45:08.519Z,97.90
2019-01-19T15:48:17.139Z,97.90
2019-01-19T15:51:27.919Z,98.00
2019-01-19T15:54:47.617Z,98.00
2019-01-19T15:57:33.222Z,98.00
2019-01-19T16:00:52.338Z,98.00
2019-01-19T16:04:06.330Z,98.10
2019-01-19T16:07:13.848Z,98.20
2019-01-19T16:10:27.701Z,98.30
2019-01-19T16:13:24.922Z,98.30
2019-01-19T16:16:30.275Z,98.40
2019-01-19T16:19:24.270Z,98.40
2019-01-19T16:22:37.199Z,98.20
2019-01-19T16:25:59.478Z,98.30
2019-01-19T16:34:35.991Z,98.40
2019-01-19T16:37:37.747Z,98.40
2019-01-19T16:41:00.406Z,98.40
2019-01-19T16:43:35.381Z,98.30
2019-01-19T16:46:34.977Z,98.30
2019-01-19T16:49:54.259Z,98.20
2019-01-19T16:55:57.525Z,98.30
2019-01-19T16:58:51.887Z,98.30
2019-01-19T17:01:54.010Z,98.20
2019-01-19T17:04:59.897Z,98.70
2019-01-19T17:08:16.117Z,98.30
2019-01-19T17:11:17.583Z,97.90
2019-01-19T17:14:11.753Z,98.10
2019-01-19T17:17:14.780Z,98.20
2019-01-19T17:23:05.422Z,98.30
2019-01-19T17:25:49.937Z,98.40
2019-01-19T17:31:13.587Z,98.30
2019-01-19T17:37:07.078Z,98.20
2019-01-19T17:40:08.618Z,98.10
2019-01-19T17:43:17.963Z,98.00
2019-01-19T17:46:31.185Z,98.10
2019-01-19T17:49:45.492Z,98.20
2019-01-19T17:55:35.440Z,98.20
2019-01-19T17:58:42.023Z,98.10
2019-01-19T18:01:50.201Z,98.20
2019-01-19T18:04:48.191Z,98.20
2019-01-19T18:08:00.838Z,98.40
2019-01-19T18:11:15.389Z,98.30
2019-01-19T18:14:20.543Z,98.30
2019-01-19T18:17:37.132Z,98.40
2019-01-19T18:20:39.523Z,98.40
2019-01-19T18:26:35.194Z,98.30
2019-01-19T18:29:46.374Z,98.40
2019-01-19T18:33:14.000Z,98.30
2019-01-19T18:37:40.972Z,98.50
2019-01-19T18:41:02.103Z,98.20
2019-01-19T18:44:19.225Z,98.20
2019-01-19T18:47:32.460Z,98.10
2019-01-19T18:50:45.694Z,98.20
2019-01-19T18:54:04.610Z,98.40
2019-01-19T18:57:19.208Z,98.40
2019-01-19T19:00:35.508Z,98.20
2019-01-19T19:03:23.260Z,98.20
2019-01-19T19:06:24.489Z,98.30
2019-01-19T19:09:27.172Z,98.20
2019-01-19T19:12:19.646Z,98.20
2019-01-19T19:18:17.275Z,98.10
2019-01-19T19:21:25.255Z,98.40
2019-01-19T19:24:29.002Z,98.20
2019-01-19T19:27:33.672Z,98.40
2019-01-19T19:33:23.626Z,98.40
2019-01-19T19:36:39.435Z,98.30
2019-01-19T19:39:36.464Z,98.30
2019-01-19T19:45:24.015Z,98.80
2019-01-19T19:48:43.417Z,98.30
2019-01-19T19:51:59.724Z,98.50
2019-01-19T19:54:30.036Z,98.50
2019-01-19T19:59:28.860Z,98.90
2019-01-19T20:01:59.157Z,98.60
2019-01-19T20:04:28.138Z,98.60
2019-01-19T20:06:57.367Z,98.90
2019-01-19T20:09:26.497Z,98.60
2019-01-19T20:11:59.752Z,98.70
2019-01-19T20:14:28.838Z,98.60
2019-01-19T20:16:57.767Z,98.50
2019-01-19T20:19:26.571Z,98.40
2019-01-19T20:21:55.545Z,98.80
2019-01-19T20:24:24.549Z,98.40
2019-01-19T20:26:53.452Z,98.60
2019-01-19T20:29:22.462Z,98.40
2019-01-19T20:31:51.384Z,98.50
2019-01-19T20:34:20.172Z,98.80
2019-01-19T20:39:17.962Z,98.50
2019-01-19T20:41:46.882Z,98.80
2019-01-19T20:44:15.834Z,98.70
2019-01-19T20:46:44.929Z,98.70
2019-01-19T20:49:13.897Z,98.40
2019-01-19T20:51:42.848Z,98.60
2019-01-19T20:56:41.457Z,98.70
2019-01-19T20:59:10.462Z,98.60
2019-01-19T21:01:39.416Z,98.60
2019-01-19T21:04:15.569Z,98.70
2019-01-19T21:09:11.168Z,98.90
2019-01-19T21:11:40.242Z,98.70
2019-01-19T21:16:37.846Z,98.90
2019-01-19T21:19:06.754Z,98.70
2019-01-19T21:21:35.724Z,98.60
2019-01-19T21:24:05.772Z,98.80
2019-01-19T21:26:34.755Z,98.70
2019-01-19T21:29:03.592Z,98.90
2019-01-19T21:31:32.181Z,98.60
2019-01-19T21:34:00.761Z,98.70
2019-01-19T21:36:29.358Z,98.60
2019-01-19T21:38:58.163Z,98.60
2019-01-19T21:41:26.622Z,98.50
2019-01-19T21:43:55.101Z,98.50
2019-01-19T21:46:23.653Z,98.60
2019-01-19T21:48:52.152Z,98.60
2019-01-19T21:51:20.828Z,98.30
2019-01-19T21:53:50.556Z,98.20
2019-01-19T21:56:18.978Z,98.30
2019-01-19T21:58:47.738Z,98.30
2019-01-19T22:01:16.178Z,98.10
2019-01-19T22:03:46.958Z,98.20
2019-01-19T22:06:15.587Z,98.30
2019-01-19T22:08:44.036Z,98.20
2019-01-19T22:11:12.735Z,97.90
2019-01-19T22:16:10.588Z,98.10
2019-01-19T22:18:39.145Z,97.90
2019-01-19T22:23:36.382Z,98.00
2019-01-19T22:31:02.408Z,98.00
2019-01-19T22:33:32.275Z,98.10
2019-01-19T22:36:00.965Z,98.10
2019-01-19T22:38:29.648Z,98.20
2019-01-19T22:40:58.218Z,98.30
2019-01-19T22:43:29.781Z,98.40
2019-01-19T22:45:58.260Z,98.50
2019-01-19T22:48:27.051Z,98.50
2019-01-19T22:50:55.535Z,98.60
2019-01-19T22:53:24.129Z,98.70
2019-01-19T22:55:52.593Z,98.70
2019-01-19T22:58:21.283Z,98.80
2019-01-19T23:01:15.000Z,98.50
2019-01-19T23:06:11.914Z,98.70
2019-01-19T23:08:40.284Z,98.70
2019-01-19T23:13:37.229Z,99.30
2019-01-19T23:16:05.961Z,99.60
2019-01-19T23:18:34.746Z,99.80
2019-01-19T23:21:03.226Z,99.80
2019-01-19T23:23:32.168Z,99.90
2019-01-19T23:26:02.544Z,99.90
2019-01-19T23:28:31.219Z,99.90
2019-01-19T23:30:59.918Z,99.90
2019-01-19T23:35:57.039Z,99.90
2019-01-19T23:38:25.776Z,99.90
2019-01-19T23:43:22.748Z,99.90
2019-01-19T23:45:51.238Z,99.90
2019-01-19T23:48:19.703Z,99.90
2019-01-19T23:50:48.246Z,99.90
2019-01-19T23:53:16.929Z,99.90
2019-01-19T23:55:45.653Z,99.90
2019-01-19T23:58:14.288Z,99.90
